首页
METAR-TAF:

METAR-TAF

机场 :

Odiham, 英格兰

纬度: 51-14N, 经度: 000-57W, 海拔: 123米

当前天气观测

该预报发布于42分钟前的08:50 UTC
风速5节,风向东北
温度 13°C
湿度 82%
气压 1015 hPa
能见度10公里或以上

METAR: EGVO 190850Z AUTO 05005KT 9999 OVC010/// 13/10 Q1015

时间: 10:32 (09:32 UTC)

预报

该预报发布于19小时和56分钟前的13:36 UTC
预报有效从18日的 15点(UTC)到 19日的 03点(UTC)
风速11节,风向
能见度10公里或以上
多云层高于1000英尺
小雨
短暂存在
从 18日的 15点(UTC)到 18日的 22点(UTC)
能見度: 6000
多云层高于600英尺
几率 40% :
短暂存在
从 18日的 15点(UTC)到 18日的 19点(UTC)
能見度: 3500
多云层高于400英尺
大雨
几率 30%
从 19日的 00点(UTC)到 19日的 03点(UTC)
少量云层高于1200英尺

TAF: EGVO 181336Z 1815/1903 01011KT 9999 -RA BKN010 TEMPO 1815/1822 6000 RA BKN006 PROB40 TEMPO 1815/1819 3500 +RA BKN004 PROB30 1900/1903 FEW012

超过4000个机场的气象观测和天气预报(METAR&TAF报告)。

可查询的气象台以黄色和红色小点在地图上表示。

将鼠标移到小点上方,可查看气象台名称。

然后点击查看天气观测和预报。

如需切换地图:点击带黑十字的绿色按钮放大地图;点击带横线的绿色按钮缩小地图;或者点击绿色箭头查看邻近地区的地图。


METAR-TAF: